Time;durP1;ratioP1;P1;durP2;ratioP2;P2;SDS_P1;SDS_P2;PMS_P1;PMS_P2;Temp;Humidity;BMP_temperature;BMP_pressure;BME280_temperature;BME280_humidity;BME280_pressure;Samples;Min_cycle;Max_cycle;Signal;HPM_P1;HPM_P2
2021/03/17 00:00:20;;;;;;;4.83;4.33;;;5.20;99.90;;;;;;5066293;28;20664;-93
2021/03/17 00:02:47;;;;;;;4.90;4.43;;;5.10;99.90;;;;;;5065855;28;20637;-92
2021/03/17 00:05:17;;;;;;;5.13;4.67;;;5.20;99.90;;;;;;5063909;28;20633;-92
2021/03/17 00:07:43;;;;;;;4.70;3.97;;;5.10;99.90;;;;;;5064992;28;20636;-92
2021/03/17 00:10:12;;;;;;;5.30;4.90;;;5.10;99.90;;;;;;5062341;28;20658;-93
2021/03/17 00:12:38;;;;;;;5.70;5.27;;;5.00;99.90;;;;;;5063557;28;20742;-93
2021/03/17 00:15:06;;;;;;;5.10;4.70;;;5.10;99.90;;;;;;5063401;28;20645;-93
2021/03/17 00:17:32;;;;;;;5.60;5.10;;;5.10;99.90;;;;;;5064513;28;21013;-93
2021/03/17 00:19:58;;;;;;;4.67;4.27;;;5.10;99.90;;;;;;5061991;28;20649;-94
2021/03/17 00:22:26;;;;;;;4.60;4.30;;;5.00;99.90;;;;;;5066613;28;20632;-92
2021/03/17 00:24:53;;;;;;;5.13;4.73;;;5.10;99.90;;;;;;5061862;28;21095;-93
2021/03/17 00:27:19;;;;;;;5.77;5.27;;;5.10;99.90;;;;;;5065883;28;20977;-92
2021/03/17 00:29:46;;;;;;;5.50;5.10;;;5.10;99.90;;;;;;5061227;28;20650;-91
2021/03/17 00:32:12;;;;;;;6.00;5.50;;;5.00;99.90;;;;;;5064914;28;20634;-91
2021/03/17 00:34:39;;;;;;;5.77;5.30;;;5.20;99.90;;;;;;5061211;28;20649;-92
2021/03/17 00:37:06;;;;;;;5.30;4.90;;;5.00;99.90;;;;;;5066735;28;20648;-92
2021/03/17 00:39:33;;;;;;;5.03;4.53;;;5.00;99.90;;;;;;5065452;28;21051;-95
2021/03/17 00:42:01;;;;;;;6.10;5.60;;;5.00;99.90;;;;;;5059464;28;20632;-94
2021/03/17 00:44:27;;;;;;;5.67;5.27;;;5.10;99.90;;;;;;5067740;28;20637;-94
2021/03/17 00:46:53;;;;;;;6.27;5.77;;;5.00;99.90;;;;;;5066830;28;20667;-94
2021/03/17 00:49:20;;;;;;;5.70;5.30;;;5.10;99.90;;;;;;5064032;28;20694;-93
2021/03/17 00:51:46;;;;;;;6.27;5.70;;;5.20;99.90;;;;;;5064794;28;20643;-93
2021/03/17 00:54:13;;;;;;;5.93;5.50;;;5.10;99.90;;;;;;5061378;28;20719;-89
2021/03/17 00:56:40;;;;;;;6.07;5.57;;;5.10;99.90;;;;;;5070815;28;20637;-90
2021/03/17 00:59:07;;;;;;;5.93;5.43;;;5.00;99.90;;;;;;5075928;28;20647;-89
2021/03/17 01:01:33;;;;;;;7.13;6.53;;;5.00;99.90;;;;;;5076774;28;20928;-91
2021/03/17 01:04:00;;;;;;;6.70;6.10;;;5.10;99.90;;;;;;5064594;28;20625;-91
2021/03/17 01:06:27;;;;;;;5.80;5.30;;;5.10;99.90;;;;;;5066764;28;20648;-90
2021/03/17 01:08:55;;;;;;;6.17;5.67;;;4.90;99.90;;;;;;5060022;28;21092;-91
2021/03/17 01:11:24;;;;;;;5.70;5.30;;;4.90;99.90;;;;;;5057748;28;20648;-91
2021/03/17 01:13:52;;;;;;;5.70;5.20;;;4.90;99.90;;;;;;5060872;28;21241;-91
2021/03/17 01:16:18;;;;;;;6.17;5.57;;;4.90;99.90;;;;;;5066499;28;20632;-90
2021/03/17 01:18:44;;;;;;;5.47;5.07;;;5.00;99.90;;;;;;5064123;28;20620;-90
2021/03/17 01:21:11;;;;;;;5.50;5.10;;;5.00;99.90;;;;;;5057484;28;21001;-90
2021/03/17 01:23:37;;;;;;;5.80;5.40;;;5.00;99.90;;;;;;5062279;28;20690;-89
2021/03/17 01:26:04;;;;;;;6.10;5.60;;;4.90;99.90;;;;;;5060134;28;20620;-90
2021/03/17 01:28:30;;;;;;;6.50;6.00;;;4.90;99.90;;;;;;5061930;28;20629;-89
2021/03/17 01:30:59;;;;;;;6.50;6.00;;;4.80;99.90;;;;;;5061242;28;20699;-91
2021/03/17 01:33:26;;;;;;;6.67;6.07;;;4.90;99.90;;;;;;5059090;28;20999;-90
2021/03/17 01:35:53;;;;;;;7.13;6.57;;;4.90;99.90;;;;;;5056703;28;20661;-89
2021/03/17 01:38:20;;;;;;;6.73;6.23;;;4.80;99.90;;;;;;5062993;28;20625;-89
2021/03/17 01:40:47;;;;;;;7.27;6.67;;;4.70;99.90;;;;;;5065175;28;20649;-89
2021/03/17 01:43:14;;;;;;;6.83;6.23;;;4.70;99.90;;;;;;5057739;28;20637;-89
2021/03/17 01:45:41;;;;;;;6.77;6.27;;;4.60;99.90;;;;;;5062876;28;21039;-90
2021/03/17 01:48:10;;;;;;;7.07;6.47;;;4.40;99.90;;;;;;5057558;28;20634;-91
2021/03/17 01:50:38;;;;;;;7.60;6.90;;;4.40;99.90;;;;;;5066611;28;20647;-91
2021/03/17 01:53:06;;;;;;;7.90;7.20;;;4.30;99.90;;;;;;5063947;28;21176;-90
2021/03/17 01:55:35;;;;;;;7.60;6.90;;;4.30;99.90;;;;;;5056869;28;20673;-90
2021/03/17 01:58:04;;;;;;;7.10;6.50;;;4.30;99.90;;;;;;5060419;28;21033;-88
2021/03/17 02:00:31;;;;;;;7.27;6.67;;;4.30;99.90;;;;;;5056689;28;20730;-89
2021/03/17 02:03:00;;;;;;;7.00;6.50;;;4.30;99.90;;;;;;5059864;28;20659;-87
2021/03/17 02:05:30;;;;;;;6.47;5.97;;;4.50;99.90;;;;;;5066067;28;20625;-89
2021/03/17 02:08:00;;;;;;;6.83;6.30;;;4.60;99.90;;;;;;5070121;28;20640;-88
2021/03/17 02:10:26;;;;;;;7.90;7.10;;;4.50;99.90;;;;;;5065155;28;20679;-88
2021/03/17 02:13:05;;;;;;;6.03;5.63;;;4.40;99.90;;;;;;5071470;28;20618;-89
2021/03/17 02:15:46;;;;;;;6.47;5.97;;;4.50;99.90;;;;;;5064178;28;20661;-90
2021/03/17 02:18:29;;;;;;;6.63;6.13;;;4.50;99.90;;;;;;5059438;28;20606;-90
2021/03/17 02:21:13;;;;;;;8.20;7.40;;;4.50;99.90;;;;;;5055778;28;21214;-89
2021/03/17 02:23:51;;;;;;;7.97;7.30;;;4.50;99.90;;;;;;5061802;28;20616;-89
2021/03/17 02:26:41;;;;;;;7.63;7.03;;;4.50;99.90;;;;;;5054508;28;20680;-88
2021/03/17 02:29:45;;;;;;;8.03;7.33;;;4.40;99.90;;;;;;5057217;28;20589;-89
2021/03/17 02:32:17;;;;;;;7.50;6.90;;;4.50;99.90;;;;;;5046572;28;21154;-89
2021/03/17 02:34:48;;;;;;;6.77;6.27;;;4.50;99.90;;;;;;5061373;28;20695;-89
2021/03/17 02:37:18;;;;;;;6.57;6.07;;;4.50;99.90;;;;;;5059678;28;20634;-89
2021/03/17 02:39:49;;;;;;;6.77;6.17;;;4.50;99.90;;;;;;5076911;28;20643;-90
2021/03/17 02:42:20;;;;;;;6.73;6.23;;;4.50;99.90;;;;;;5080827;28;20625;-90
2021/03/17 02:44:50;;;;;;;6.43;5.93;;;4.50;99.90;;;;;;5080396;28;20605;-90
2021/03/17 02:47:17;;;;;;;5.70;5.30;;;4.50;99.90;;;;;;5077545;28;20641;-90
2021/03/17 02:49:47;;;;;;;5.97;5.47;;;4.50;99.90;;;;;;5074036;28;20656;-90
2021/03/17 02:52:15;;;;;;;5.57;5.17;;;4.50;99.90;;;;;;5073532;28;21431;-90
2021/03/17 02:54:44;;;;;;;5.10;4.70;;;4.30;99.90;;;;;;5067264;28;20657;-90
2021/03/17 02:57:14;;;;;;;5.40;5.00;;;4.30;99.90;;;;;;5068395;28;20636;-89
2021/03/17 02:59:43;;;;;;;5.80;5.40;;;4.20;99.90;;;;;;5075210;28;20644;-89
2021/03/17 03:02:12;;;;;;;5.60;5.13;;;4.20;99.90;;;;;;5080313;28;20614;-89
2021/03/17 03:04:41;;;;;;;6.30;5.83;;;4.20;99.90;;;;;;5082016;28;20651;-88
2021/03/17 03:07:08;;;;;;;6.43;5.93;;;4.20;99.90;;;;;;5080140;28;20609;-90
2021/03/17 03:09:36;;;;;;;6.53;5.93;;;4.30;99.90;;;;;;5069073;28;20640;-91
2021/03/17 03:12:03;;;;;;;6.67;6.17;;;4.30;99.90;;;;;;5058624;28;20643;-89
2021/03/17 03:14:30;;;;;;;7.03;6.53;;;4.30;99.90;;;;;;5057683;28;20649;-91
2021/03/17 03:16:59;;;;;;;7.10;6.60;;;4.30;99.90;;;;;;5061942;28;20710;-88
2021/03/17 03:19:29;;;;;;;7.10;6.60;;;4.20;99.90;;;;;;5061345;28;20650;-90
2021/03/17 03:21:56;;;;;;;7.40;6.80;;;4.20;99.90;;;;;;5066873;28;20668;-90
2021/03/17 03:24:23;;;;;;;7.53;6.90;;;4.20;99.90;;;;;;5060443;28;20618;-90
2021/03/17 03:26:52;;;;;;;7.43;6.83;;;4.30;99.90;;;;;;5069176;28;20617;-91
2021/03/17 03:29:18;;;;;;;6.70;6.20;;;4.20;99.90;;;;;;5059964;28;21012;-89
2021/03/17 03:31:47;;;;;;;6.80;6.30;;;4.20;99.90;;;;;;5065591;28;20616;-89
2021/03/17 03:34:14;;;;;;;6.90;6.40;;;4.10;99.90;;;;;;5066083;28;20669;-89
2021/03/17 03:36:41;;;;;;;5.83;5.43;;;4.20;99.90;;;;;;5065459;28;21316;-89
2021/03/17 03:39:08;;;;;;;7.00;6.30;;;4.20;99.90;;;;;;5063224;28;20710;-91
2021/03/17 03:41:35;;;;;;;7.27;6.60;;;4.20;99.90;;;;;;5064430;28;21187;-89
2021/03/17 03:44:01;;;;;;;6.80;6.30;;;4.20;99.90;;;;;;5060346;28;20676;-91
2021/03/17 03:46:28;;;;;;;7.17;6.67;;;4.10;99.90;;;;;;5062846;28;20629;-92
2021/03/17 03:48:55;;;;;;;7.43;6.83;;;4.20;99.90;;;;;;5061093;28;20653;-91
2021/03/17 03:51:21;;;;;;;7.20;6.70;;;4.10;99.90;;;;;;5062009;28;20657;-91
2021/03/17 03:54:00;;;;;;;7.90;7.30;;;4.20;99.90;;;;;;5064027;28;20629;-89
2021/03/17 03:56:32;;;;;;;7.83;7.23;;;4.20;99.90;;;;;;5061877;28;20671;-88
2021/03/17 03:59:03;;;;;;;7.37;6.87;;;4.20;99.90;;;;;;5062856;28;20665;-93
2021/03/17 04:01:38;;;;;;;7.77;7.17;;;4.20;99.90;;;;;;5066819;28;21230;-90
2021/03/17 04:04:10;;;;;;;8.80;8.03;;;4.10;99.90;;;;;;5063676;28;20632;-92
2021/03/17 04:06:38;;;;;;;8.50;7.90;;;4.10;99.90;;;;;;5061611;28;20644;-91
2021/03/17 04:09:07;;;;;;;9.60;8.90;;;3.90;99.90;;;;;;5064331;28;20665;-91
2021/03/17 04:11:34;;;;;;;9.50;8.70;;;3.90;99.90;;;;;;5064349;28;20668;-93
2021/03/17 04:14:06;;;;;;;9.17;8.43;;;3.90;99.90;;;;;;5065813;28;20685;-93
2021/03/17 04:16:34;;;;;;;8.77;8.07;;;3.90;99.90;;;;;;5070244;28;20629;-94
2021/03/17 04:19:01;;;;;;;9.37;8.67;;;3.90;99.90;;;;;;5064579;28;20698;-93
2021/03/17 04:21:30;;;;;;;9.80;9.10;;;3.80;99.90;;;;;;5062606;28;20627;-92
2021/03/17 04:23:59;;;;;;;10.13;9.43;;;3.90;99.90;;;;;;5059688;28;20663;-90
2021/03/17 04:26:27;;;;;;;11.47;10.57;;;3.90;99.90;;;;;;5063356;28;20638;-90
2021/03/17 04:28:56;;;;;;;9.80;9.10;;;4.00;99.90;;;;;;5058837;28;20664;-90
2021/03/17 04:31:26;;;;;;;9.73;9.03;;;4.00;99.90;;;;;;5058636;28;20623;-91
2021/03/17 04:33:56;;;;;;;8.80;8.10;;;4.00;99.90;;;;;;5066428;28;20625;-92
2021/03/17 04:36:26;;;;;;;10.00;9.20;;;4.00;99.90;;;;;;5064724;28;20629;-91
2021/03/17 04:38:53;;;;;;;9.80;9.00;;;3.90;99.90;;;;;;5062588;28;20661;-91
2021/03/17 04:41:20;;;;;;;9.03;8.30;;;3.90;99.90;;;;;;5060952;28;20668;-91
2021/03/17 04:43:47;;;;;;;11.30;10.40;;;3.90;99.90;;;;;;5054128;28;20937;-91
2021/03/17 04:46:15;;;;;;;10.30;9.40;;;3.90;99.90;;;;;;5062682;28;20629;-91
2021/03/17 04:48:47;;;;;;;9.90;9.20;;;4.00;99.90;;;;;;5063995;28;20993;-92
2021/03/17 04:51:17;;;;;;;10.60;9.80;;;3.90;99.90;;;;;;5067232;28;20613;-92
2021/03/17 04:53:43;;;;;;;10.50;9.73;;;4.00;99.90;;;;;;5062179;28;20651;-91
2021/03/17 04:56:11;;;;;;;10.03;9.27;;;4.10;99.90;;;;;;5062940;28;20806;-94
2021/03/17 04:58:47;;;;;;;10.80;9.90;;;4.00;99.90;;;;;;5058869;28;20656;-94
2021/03/17 05:01:15;;;;;;;11.00;10.20;;;4.00;99.90;;;;;;5066220;28;20632;-94
2021/03/17 05:03:47;;;;;;;12.40;10.23;;;4.00;99.90;;;;;;5064855;28;21087;-94
2021/03/17 05:06:14;;;;;;;11.60;10.60;;;4.00;99.90;;;;;;5061344;28;20628;-93
2021/03/17 05:08:45;;;;;;;11.73;10.93;;;4.00;99.90;;;;;;5061577;28;20654;-93
2021/03/17 05:11:14;;;;;;;11.30;10.40;;;3.90;99.90;;;;;;5065025;28;20643;-96
2021/03/17 05:13:41;;;;;;;11.63;10.73;;;4.10;99.90;;;;;;5082123;28;20685;-94
2021/03/17 05:18:46;;;;;;;12.30;11.33;;;4.00;99.90;;;;;;5206685;22;20689;-92
2021/03/17 05:21:17;;;;;;;12.67;11.67;;;4.00;99.90;;;;;;5051316;28;20595;-94
2021/03/17 05:23:44;;;;;;;12.53;11.53;;;4.00;99.90;;;;;;5054783;28;20637;-92
2021/03/17 05:26:12;;;;;;;12.80;11.80;;;4.00;99.90;;;;;;5042937;28;21284;-93
2021/03/17 05:28:40;;;;;;;12.33;11.40;;;4.00;99.90;;;;;;5035352;28;20642;-94
2021/03/17 05:31:11;;;;;;;13.30;12.20;;;4.10;99.90;;;;;;5035140;28;20588;-94
2021/03/17 05:33:56;;;;;;;14.20;13.17;;;4.00;99.90;;;;;;5016594;28;20627;-93
2021/03/17 05:36:23;;;;;;;14.50;13.40;;;3.90;99.90;;;;;;5020584;28;20701;-89
2021/03/17 05:38:49;;;;;;;13.10;12.10;;;4.00;99.90;;;;;;5035877;28;20623;-90
2021/03/17 05:41:16;;;;;;;12.70;11.60;;;4.00;99.90;;;;;;5032393;28;20630;-90
2021/03/17 05:43:42;;;;;;;14.47;13.37;;;4.10;99.90;;;;;;5032820;28;20604;-90
2021/03/17 05:46:09;;;;;;;12.43;11.47;;;4.10;99.90;;;;;;5036300;28;20665;-89
2021/03/17 05:48:36;;;;;;;15.80;14.47;;;4.10;99.90;;;;;;5030760;28;20615;-88
2021/03/17 05:51:03;;;;;;;13.97;12.87;;;4.10;99.90;;;;;;5024898;28;20684;-90
2021/03/17 05:53:31;;;;;;;14.13;12.93;;;4.20;99.90;;;;;;5004440;28;20609;-93
2021/03/17 05:56:01;;;;;;;14.70;13.60;;;4.10;99.90;;;;;;5008900;28;20689;-92
2021/03/17 05:58:28;;;;;;;15.60;14.20;;;4.10;99.90;;;;;;5011737;28;20835;-95
2021/03/17 06:00:57;;;;;;;16.33;15.03;;;4.20;99.90;;;;;;5018937;28;20731;-95
2021/03/17 06:03:27;;;;;;;16.10;14.70;;;4.30;99.90;;;;;;5017355;28;20636;-94
2021/03/17 06:05:55;;;;;;;16.00;14.70;;;4.40;99.90;;;;;;5043976;28;20631;-96
2021/03/17 06:08:29;;;;;;;16.03;14.73;;;4.20;99.90;;;;;;5035894;28;20646;-96
2021/03/17 06:11:08;;;;;;;17.13;15.63;;;4.30;99.90;;;;;;5028537;28;20628;-96
2021/03/17 06:13:40;;;;;;;16.80;15.40;;;4.30;99.90;;;;;;5031661;28;21299;-96
2021/03/17 06:16:09;;;;;;;17.33;15.90;;;4.30;99.90;;;;;;5024682;28;21077;-94
2021/03/17 06:18:41;;;;;;;17.30;15.80;;;4.10;99.90;;;;;;5030358;28;20651;-96
2021/03/17 06:21:08;;;;;;;16.83;15.43;;;4.10;99.90;;;;;;5028528;28;20626;-96
2021/03/17 06:23:35;;;;;;;18.23;16.63;;;4.10;99.90;;;;;;5011529;28;20655;-93
2021/03/17 06:26:02;;;;;;;18.27;16.63;;;4.20;99.90;;;;;;5013958;28;20656;-91
2021/03/17 06:28:30;;;;;;;16.60;15.20;;;4.20;99.90;;;;;;5028412;28;20685;-93
2021/03/17 06:30:57;;;;;;;17.50;16.00;;;4.10;99.90;;;;;;5023595;28;20608;-93
2021/03/17 06:33:24;;;;;;;16.57;15.20;;;4.10;99.90;;;;;;5022258;28;20962;-94
2021/03/17 06:36:09;;;;;;;14.70;13.50;;;4.10;99.90;;;;;;5022911;28;21057;-93
2021/03/17 06:38:36;;;;;;;12.87;11.87;;;4.00;99.90;;;;;;5007845;28;20654;-94
2021/03/17 06:41:18;;;;;;;13.70;12.60;;;4.10;99.90;;;;;;5024909;28;20702;-93
2021/03/17 06:43:48;;;;;;;12.80;11.80;;;4.20;99.90;;;;;;4999296;28;20722;-92
2021/03/17 06:46:17;;;;;;;16.23;14.90;;;4.20;99.90;;;;;;5013966;28;20657;-92
2021/03/17 06:48:45;;;;;;;15.93;14.67;;;4.20;99.90;;;;;;5007539;28;21224;-92
2021/03/17 06:51:13;;;;;;;16.47;15.13;;;4.30;99.90;;;;;;5018678;28;20646;-92
2021/03/17 06:53:43;;;;;;;18.50;16.90;;;4.30;99.90;;;;;;5017675;28;20667;-92
2021/03/17 06:56:19;;;;;;;17.60;16.00;;;4.40;99.90;;;;;;5024575;28;20669;-95
2021/03/17 06:58:49;;;;;;;18.80;17.30;;;4.30;99.90;;;;;;5012613;28;21245;-94
2021/03/17 07:01:36;;;;;;;21.27;19.47;;;4.40;99.90;;;;;;5017662;28;20675;-95
2021/03/17 07:04:05;;;;;;;19.50;17.80;;;4.50;99.90;;;;;;5014895;28;20644;-95
2021/03/17 07:06:36;;;;;;;20.37;18.57;;;4.70;99.90;;;;;;5015033;28;20635;-92
2021/03/17 07:09:17;;;;;;;21.90;19.90;;;4.70;99.90;;;;;;5014611;28;21171;-91
2021/03/17 07:11:44;;;;;;;21.00;18.90;;;4.80;99.90;;;;;;5022030;28;20626;-92
2021/03/17 07:14:12;;;;;;;21.13;19.23;;;4.90;99.90;;;;;;5018020;28;20631;-91
2021/03/17 07:16:40;;;;;;;23.07;20.87;;;4.70;99.90;;;;;;5015936;28;20671;-92
2021/03/17 07:19:09;;;;;;;22.80;20.77;;;4.80;99.90;;;;;;5011556;28;20659;-93
2021/03/17 07:21:37;;;;;;;21.67;19.67;;;4.80;99.90;;;;;;5013154;28;20634;-91
2021/03/17 07:24:06;;;;;;;22.00;20.17;;;4.80;99.90;;;;;;5032589;28;20605;-91
2021/03/17 07:26:37;;;;;;;23.70;21.60;;;4.80;99.90;;;;;;5028930;28;20638;-92
2021/03/17 07:29:15;;;;;;;23.53;21.43;;;4.80;99.90;;;;;;5022897;28;20642;-92
2021/03/17 07:31:45;;;;;;;20.80;19.00;;;5.00;99.90;;;;;;5014967;28;20628;-93
2021/03/17 07:34:23;;;;;;;21.70;19.67;;;5.10;99.90;;;;;;5014911;28;20632;-91
2021/03/17 07:36:55;;;;;;;20.17;18.47;;;5.20;99.90;;;;;;5010418;28;20639;-89
2021/03/17 07:39:25;;;;;;;20.17;18.33;;;5.10;99.90;;;;;;5009183;28;20670;-94
2021/03/17 07:41:54;;;;;;;21.43;19.63;;;5.10;99.90;;;;;;5014571;28;20986;-93
2021/03/17 07:44:22;;;;;;;20.57;18.87;;;5.10;99.90;;;;;;5010766;28;20651;-91
2021/03/17 07:46:52;;;;;;;18.67;17.00;;;5.20;99.90;;;;;;5017184;28;20678;-90
2021/03/17 07:49:19;;;;;;;19.03;17.53;;;5.30;99.90;;;;;;5010547;28;21194;-91
2021/03/17 07:51:49;;;;;;;19.93;18.07;;;5.30;99.90;;;;;;5010729;28;20624;-90
2021/03/17 07:54:21;;;;;;;19.57;17.87;;;5.30;99.90;;;;;;5013577;28;20640;-90
2021/03/17 07:56:49;;;;;;;19.93;18.23;;;5.50;99.90;;;;;;5004942;28;20644;-90
2021/03/17 07:59:17;;;;;;;19.60;18.00;;;5.40;99.90;;;;;;5011268;28;20627;-90
2021/03/17 08:01:45;;;;;;;20.63;18.77;;;5.40;99.90;;;;;;5017522;28;20643;-89
2021/03/17 08:04:14;;;;;;;20.13;18.10;;;5.50;99.90;;;;;;5014985;28;20634;-91
2021/03/17 08:06:40;;;;;;;19.70;17.97;;;5.60;99.90;;;;;;5022840;28;20619;-91
2021/03/17 08:09:07;;;;;;;19.63;18.00;;;5.60;99.90;;;;;;5017827;28;20642;-90
2021/03/17 08:11:34;;;;;;;20.40;18.73;;;5.50;99.90;;;;;;4988428;28;20628;-90
2021/03/17 08:14:06;;;;;;;21.30;19.10;;;5.50;99.90;;;;;;5013400;28;20637;-91
2021/03/17 08:16:35;;;;;;;17.67;16.27;;;5.60;99.90;;;;;;5008836;28;20614;-91
2021/03/17 08:19:23;;;;;;;20.13;18.30;;;5.60;99.90;;;;;;5013618;28;20636;-90
2021/03/17 08:21:52;;;;;;;19.90;18.30;;;5.60;99.90;;;;;;5016069;28;20627;-92
2021/03/17 08:24:41;;;;;;;18.50;17.00;;;5.70;99.90;;;;;;5018979;28;20686;-92
2021/03/17 08:27:25;;;;;;;17.17;15.63;;;5.80;99.90;;;;;;5020575;28;20713;-91
2021/03/17 08:30:04;;;;;;;18.73;17.13;;;5.60;99.90;;;;;;5021955;28;20628;-91
2021/03/17 08:33:06;;;;;;;16.67;15.37;;;5.70;99.90;;;;;;4992816;28;20640;-89
2021/03/17 08:36:03;;;;;;;16.80;15.23;;;6.10;99.90;;;;;;5011361;28;20679;-91
2021/03/17 08:38:47;;;;;;;15.63;14.37;;;6.20;99.90;;;;;;5011588;28;21158;-90
2021/03/17 08:41:14;;;;;;;15.03;13.80;;;6.10;99.90;;;;;;5028607;28;20697;-90
2021/03/17 08:43:44;;;;;;;14.67;13.57;;;6.10;99.90;;;;;;5019292;28;20627;-90
2021/03/17 08:46:16;;;;;;;14.97;13.57;;;6.10;99.90;;;;;;5009436;28;20698;-91
2021/03/17 08:49:02;;;;;;;15.93;14.50;;;6.10;99.90;;;;;;5008919;28;21185;-88
2021/03/17 08:52:04;;;;;;;14.27;12.97;;;5.90;99.90;;;;;;5008474;28;20620;-90
2021/03/17 08:54:47;;;;;;;14.90;13.60;;;5.90;99.90;;;;;;5002849;28;20675;-91
2021/03/17 08:57:15;;;;;;;13.33;12.13;;;5.90;99.90;;;;;;5011965;28;20974;-88
2021/03/17 08:59:42;;;;;;;13.60;12.50;;;6.00;99.90;;;;;;5009766;28;20673;-91
2021/03/17 09:02:21;;;;;;;12.57;11.57;;;6.10;99.90;;;;;;5008699;28;20619;-88
2021/03/17 09:04:49;;;;;;;12.23;11.03;;;6.20;99.90;;;;;;5005360;28;20710;-89
2021/03/17 09:07:19;;;;;;;11.43;10.37;;;6.20;99.90;;;;;;5002262;28;20911;-89
2021/03/17 09:09:48;;;;;;;9.43;8.70;;;6.50;99.90;;;;;;5004964;28;20621;-90
2021/03/17 09:12:16;;;;;;;10.33;9.43;;;6.60;99.90;;;;;;5005983;28;20634;-89
2021/03/17 09:14:42;;;;;;;11.23;10.00;;;7.00;99.90;;;;;;5004832;28;20668;-89
2021/03/17 09:17:29;;;;;;;8.53;7.83;;;7.30;99.90;;;;;;5008019;28;20734;-90
2021/03/17 09:20:23;;;;;;;7.97;7.27;;;7.50;99.90;;;;;;4998931;28;20632;-90
2021/03/17 09:23:04;;;;;;;7.90;7.20;;;7.50;99.90;;;;;;5006108;28;20642;-89
2021/03/17 09:25:33;;;;;;;9.83;7.90;;;7.40;99.90;;;;;;5009203;28;20647;-89
2021/03/17 09:28:02;;;;;;;7.77;7.17;;;7.70;99.90;;;;;;5011897;28;20623;-88
2021/03/17 09:30:35;;;;;;;6.90;6.30;;;7.70;99.90;;;;;;5008951;28;20616;-90
2021/03/17 09:33:05;;;;;;;6.33;5.73;;;7.50;99.90;;;;;;5014530;28;20644;-90
2021/03/17 09:35:33;;;;;;;5.80;5.30;;;7.60;98.50;;;;;;5013099;28;20786;-91
2021/03/17 09:38:03;;;;;;;5.03;4.63;;;7.70;99.80;;;;;;5006370;28;20636;-91
2021/03/17 09:40:34;;;;;;;6.10;5.60;;;7.70;99.20;;;;;;5010402;28;21041;-92
2021/03/17 09:43:01;;;;;;;5.90;5.30;;;8.10;99.10;;;;;;5013987;28;20694;-93
2021/03/17 09:45:27;;;;;;;5.80;5.23;;;8.10;98.40;;;;;;5011969;28;20744;-92
2021/03/17 09:47:58;;;;;;;6.97;6.20;;;7.90;99.70;;;;;;5035257;28;20632;-92
2021/03/17 09:50:26;;;;;;;6.13;5.63;;;7.80;99.70;;;;;;5020816;28;20611;-92
2021/03/17 09:52:53;;;;;;;8.80;6.60;;;7.90;99.30;;;;;;5014921;28;20628;-90
2021/03/17 09:55:36;;;;;;;7.20;6.50;;;7.90;99.90;;;;;;5019841;28;20702;-92
2021/03/17 09:58:09;;;;;;;5.63;5.17;;;8.10;98.60;;;;;;5024569;28;20758;-93
2021/03/17 10:00:36;;;;;;;5.30;4.43;;;8.40;98.80;;;;;;5037466;28;20634;-92
2021/03/17 10:03:05;;;;;;;4.40;4.00;;;8.80;98.50;;;;;;5040302;28;20635;-92
2021/03/17 10:05:37;;;;;;;5.07;4.57;;;8.70;99.10;;;;;;5038724;28;20627;-94
2021/03/17 10:08:05;;;;;;;3.13;2.83;;;8.80;96.10;;;;;;5042390;28;20616;-94
2021/03/17 10:10:31;;;;;;;3.43;2.87;;;8.30;95.00;;;;;;5038382;28;20625;-92
2021/03/17 10:13:01;;;;;;;4.60;3.80;;;8.10;95.30;;;;;;5039140;28;20606;-93
2021/03/17 10:15:29;;;;;;;5.13;3.37;;;7.80;95.60;;;;;;5020578;28;20801;-93
2021/03/17 10:17:57;;;;;;;3.60;3.30;;;7.50;96.90;;;;;;5038343;28;20693;-92
2021/03/17 10:20:27;;;;;;;3.20;2.90;;;7.60;97.00;;;;;;5032552;28;20632;-95
2021/03/17 10:22:57;;;;;;;4.10;3.70;;;7.50;96.90;;;;;;5025966;28;20640;-93
2021/03/17 10:25:28;;;;;;;3.80;3.43;;;7.40;96.10;;;;;;5014523;28;20651;-92
2021/03/17 10:28:04;;;;;;;5.57;3.23;;;7.40;98.00;;;;;;5011468;28;20732;-93
2021/03/17 10:30:34;;;;;;;3.47;3.17;;;7.30;99.00;;;;;;5012572;28;20746;-92
2021/03/17 10:33:01;;;;;;;6.53;3.40;;;7.20;99.90;;;;;;5013552;28;20656;-93
2021/03/17 10:35:28;;;;;;;4.17;3.77;;;7.10;99.90;;;;;;5010990;28;20672;-93
2021/03/17 10:37:55;;;;;;;5.17;4.00;;;7.00;99.90;;;;;;5014076;28;20625;-93
2021/03/17 10:40:23;;;;;;;4.33;3.80;;;7.00;99.90;;;;;;5014253;28;20615;-94
2021/03/17 10:42:52;;;;;;;5.43;4.93;;;7.10;99.90;;;;;;5010727;28;20635;-91
2021/03/17 10:45:22;;;;;;;6.33;5.00;;;7.00;99.90;;;;;;5011587;28;20754;-92
2021/03/17 10:47:49;;;;;;;4.40;3.83;;;6.90;99.90;;;;;;5009451;28;20652;-92
2021/03/17 10:50:17;;;;;;;5.03;4.53;;;6.70;99.90;;;;;;5008886;28;20631;-92
2021/03/17 10:52:45;;;;;;;5.10;4.60;;;6.70;99.90;;;;;;5013351;28;20658;-91
2021/03/17 10:55:19;;;;;;;6.37;5.20;;;6.60;99.90;;;;;;5012720;28;20675;-90
2021/03/17 10:57:47;;;;;;;5.27;4.43;;;6.90;99.90;;;;;;5019314;28;21028;-91
2021/03/17 11:00:17;;;;;;;5.83;4.87;;;7.20;99.90;;;;;;5010855;28;20616;-93
2021/03/17 11:02:45;;;;;;;5.63;4.27;;;7.90;99.90;;;;;;5018510;28;20634;-91
2021/03/17 11:05:25;;;;;;;5.50;5.00;;;8.10;99.90;;;;;;5018414;28;20658;-91
2021/03/17 11:08:00;;;;;;;5.30;4.80;;;8.00;99.90;;;;;;5022286;28;20615;-92
2021/03/17 11:10:49;;;;;;;7.03;5.10;;;7.90;99.90;;;;;;5013514;28;20620;-91
2021/03/17 11:13:30;;;;;;;5.10;4.70;;;7.50;99.90;;;;;;5013935;28;20631;-92
2021/03/17 11:16:00;;;;;;;5.53;5.07;;;7.10;99.90;;;;;;5010868;28;20710;-96
2021/03/17 11:18:29;;;;;;;5.10;4.67;;;7.00;99.90;;;;;;5014879;28;20647;-93
2021/03/17 11:20:59;;;;;;;6.63;4.50;;;7.00;99.90;;;;;;4995595;28;20642;-93
2021/03/17 11:23:27;;;;;;;4.90;4.40;;;6.80;99.90;;;;;;5008953;28;20663;-94
2021/03/17 11:25:55;;;;;;;6.00;4.17;;;6.90;99.90;;;;;;5016635;28;20643;-92
2021/03/17 11:28:24;;;;;;;4.40;4.00;;;6.90;99.90;;;;;;5014460;28;21172;-92
2021/03/17 11:30:52;;;;;;;4.73;4.33;;;6.70;99.90;;;;;;5017848;28;21217;-93
2021/03/17 11:33:20;;;;;;;4.60;3.63;;;6.60;99.90;;;;;;5020613;28;20683;-92
2021/03/17 11:35:49;;;;;;;5.00;4.50;;;6.70;99.90;;;;;;5017527;28;21321;-92
2021/03/17 11:38:16;;;;;;;5.63;4.03;;;6.70;99.90;;;;;;5011615;28;21114;-92
2021/03/17 11:40:44;;;;;;;4.63;4.23;;;6.70;99.90;;;;;;5019849;28;20637;-91
2021/03/17 11:43:13;;;;;;;4.50;4.10;;;6.70;99.90;;;;;;5029035;28;20623;-93
2021/03/17 11:45:43;;;;;;;5.60;4.40;;;7.00;99.90;;;;;;5030868;28;20648;-92
2021/03/17 11:48:14;;;;;;;4.20;3.80;;;7.00;99.90;;;;;;5002044;28;20627;-95
2021/03/17 11:50:43;;;;;;;4.80;4.30;;;6.70;99.90;;;;;;5012258;28;20632;-91
2021/03/17 11:53:11;;;;;;;6.17;4.50;;;6.50;99.90;;;;;;5013709;28;20989;-93
2021/03/17 11:55:38;;;;;;;4.83;4.40;;;6.50;99.90;;;;;;5014646;28;20697;-91
2021/03/17 11:58:05;;;;;;;4.80;4.40;;;6.30;99.90;;;;;;5012682;28;20990;-92
2021/03/17 12:00:32;;;;;;;5.43;4.97;;;6.20;99.90;;;;;;5003922;28;21173;-91
2021/03/17 12:02:59;;;;;;;8.87;4.77;;;6.30;99.90;;;;;;5012576;28;20641;-93
2021/03/17 12:05:28;;;;;;;5.73;5.17;;;6.30;99.90;;;;;;5025846;28;20649;-92
2021/03/17 12:07:56;;;;;;;7.03;5.47;;;6.20;99.90;;;;;;5012395;28;20622;-94
2021/03/17 12:10:24;;;;;;;7.57;5.97;;;6.10;99.90;;;;;;5023473;28;20627;-91
2021/03/17 12:12:51;;;;;;;4.97;4.57;;;6.20;99.90;;;;;;5008352;28;20635;-92
2021/03/17 12:15:19;;;;;;;6.23;5.63;;;6.10;99.90;;;;;;5018454;28;20675;-92
2021/03/17 12:17:46;;;;;;;6.57;5.97;;;6.00;99.90;;;;;;5019043;28;21011;-91
2021/03/17 12:20:15;;;;;;;7.17;6.43;;;5.80;99.90;;;;;;5014237;28;20627;-92
2021/03/17 12:22:44;;;;;;;6.70;6.00;;;5.70;99.90;;;;;;5014343;28;20612;-92
2021/03/17 12:25:11;;;;;;;6.97;6.30;;;5.70;99.90;;;;;;5020264;28;20654;-92
2021/03/17 12:27:41;;;;;;;8.97;7.10;;;5.50;99.90;;;;;;5010668;28;20640;-92
2021/03/17 12:30:10;;;;;;;7.90;7.20;;;5.60;99.90;;;;;;5013167;28;21132;-92
2021/03/17 12:32:37;;;;;;;8.30;7.50;;;5.50;99.90;;;;;;4996745;28;20630;-92
2021/03/17 12:35:04;;;;;;;7.83;7.13;;;5.70;99.90;;;;;;5014172;28;21248;-92
2021/03/17 12:37:31;;;;;;;8.07;7.27;;;5.30;99.90;;;;;;5017131;28;20988;-92
2021/03/17 12:39:57;;;;;;;8.53;7.73;;;5.20;99.90;;;;;;5011756;28;20627;-90
2021/03/17 12:42:23;;;;;;;8.33;7.53;;;5.30;99.90;;;;;;5013064;28;21127;-90
2021/03/17 12:44:51;;;;;;;9.27;8.47;;;5.30;99.90;;;;;;5012758;28;20628;-91
2021/03/17 12:47:17;;;;;;;11.00;8.67;;;5.10;99.90;;;;;;5010227;28;21321;-91
2021/03/17 12:49:43;;;;;;;7.67;7.00;;;5.20;99.90;;;;;;5008909;28;20623;-92
2021/03/17 12:52:11;;;;;;;8.57;7.77;;;5.20;99.90;;;;;;5008436;28;20635;-90
2021/03/17 12:54:38;;;;;;;9.37;8.10;;;5.10;99.90;;;;;;5014077;28;20619;-91
2021/03/17 12:57:05;;;;;;;9.13;8.27;;;5.10;99.90;;;;;;5025740;28;20708;-90
2021/03/17 12:59:32;;;;;;;8.23;7.53;;;5.00;99.90;;;;;;5031947;28;20634;-92
2021/03/17 13:01:59;;;;;;;8.63;7.80;;;4.90;99.90;;;;;;5018460;28;20620;-92
2021/03/17 13:04:25;;;;;;;8.67;7.83;;;4.90;99.90;;;;;;4999822;28;20627;-91
2021/03/17 13:06:52;;;;;;;8.33;7.43;;;4.80;99.90;;;;;;5015705;28;20708;-89